Time;durP1;ratioP1;P1;durP2;ratioP2;P2;SDS_P1;SDS_P2;PMS_P1;PMS_P2;Temp;Humidity;BMP_temperature;BMP_pressure;BME280_temperature;BME280_humidity;BME280_pressure;Samples;Min_cycle;Max_cycle;Signal;HPM_P1;HPM_P2
2021/03/20 00:01:43;;;;;;;2.70;2.50;;;3.70;99.90;;;;;;5046530;28;20444;-68
2021/03/20 00:04:11;;;;;;;4.13;1.50;;;3.60;99.90;;;;;;5044776;28;21000;-68
2021/03/20 00:06:41;;;;;;;2.40;2.20;;;3.50;99.90;;;;;;5036887;28;20470;-68
2021/03/20 00:09:10;;;;;;;1.20;1.10;;;3.30;99.90;;;;;;5043701;28;20458;-68
2021/03/20 00:11:39;;;;;;;2.47;1.63;;;3.40;99.90;;;;;;5043377;28;20973;-68
2021/03/20 00:14:06;;;;;;;1.70;1.50;;;3.40;99.90;;;;;;5044404;28;20938;-67
2021/03/20 00:16:33;;;;;;;4.80;2.30;;;3.40;99.90;;;;;;5038513;28;20946;-68
2021/03/20 00:19:00;;;;;;;1.63;1.53;;;3.40;99.90;;;;;;5047461;28;20434;-67
2021/03/20 00:21:27;;;;;;;1.50;1.30;;;3.50;99.90;;;;;;5049370;28;20476;-67
2021/03/20 00:23:54;;;;;;;1.70;1.60;;;3.50;99.90;;;;;;5045100;28;20464;-70
2021/03/20 00:26:23;;;;;;;3.00;2.63;;;3.50;99.90;;;;;;5036211;28;21041;-70
2021/03/20 00:28:49;;;;;;;2.20;1.93;;;3.30;99.90;;;;;;5044387;28;20968;-67
2021/03/20 00:31:16;;;;;;;1.77;1.53;;;3.10;99.90;;;;;;5048248;28;20432;-70
2021/03/20 00:33:44;;;;;;;4.63;2.23;;;3.20;99.90;;;;;;5052908;28;20553;-69
2021/03/20 00:36:12;;;;;;;2.80;2.17;;;3.30;99.90;;;;;;5040522;28;20445;-70
2021/03/20 00:38:40;;;;;;;1.70;1.50;;;3.20;99.90;;;;;;5047505;28;20456;-69
2021/03/20 00:41:09;;;;;;;3.10;1.50;;;3.20;99.90;;;;;;5049113;28;20462;-69
2021/03/20 00:43:37;;;;;;;1.83;1.33;;;3.20;99.90;;;;;;5043881;28;20445;-70
2021/03/20 00:46:05;;;;;;;4.40;2.20;;;3.20;99.90;;;;;;5045154;28;20523;-69
2021/03/20 00:48:34;;;;;;;1.70;1.50;;;3.10;99.90;;;;;;5043394;28;20600;-70
2021/03/20 00:51:02;;;;;;;1.97;1.77;;;3.00;99.90;;;;;;5044254;28;20479;-67
2021/03/20 00:53:29;;;;;;;2.90;2.40;;;3.00;99.90;;;;;;5032364;28;20991;-68
2021/03/20 00:55:57;;;;;;;2.53;2.03;;;3.00;99.90;;;;;;5036791;28;20455;-70
2021/03/20 00:58:27;;;;;;;1.27;1.17;;;3.10;99.90;;;;;;5044055;28;20433;-69
2021/03/20 01:00:56;;;;;;;8.60;1.60;;;2.90;99.90;;;;;;5048035;28;20486;-70
2021/03/20 01:03:23;;;;;;;1.70;1.30;;;2.90;99.90;;;;;;5048426;28;20531;-69
2021/03/20 01:05:50;;;;;;;1.70;1.17;;;2.90;99.90;;;;;;5048016;28;20454;-69
2021/03/20 01:08:17;;;;;;;3.20;1.33;;;2.80;99.90;;;;;;5046214;28;20482;-70
2021/03/20 01:10:44;;;;;;;3.33;2.27;;;2.70;99.90;;;;;;5043481;28;20465;-70
2021/03/20 01:13:12;;;;;;;2.50;1.57;;;2.60;99.90;;;;;;5037211;28;20453;-69
2021/03/20 01:15:39;;;;;;;1.03;0.90;;;2.50;99.90;;;;;;5042689;28;20458;-70
2021/03/20 01:18:06;;;;;;;6.53;1.10;;;2.30;99.90;;;;;;5019807;28;20459;-69
2021/03/20 01:20:33;;;;;;;1.90;1.40;;;2.30;99.90;;;;;;5043675;28;20507;-69
2021/03/20 01:23:04;;;;;;;1.97;1.67;;;2.50;99.90;;;;;;5049712;28;21030;-70
2021/03/20 01:25:31;;;;;;;1.37;1.17;;;2.50;99.90;;;;;;5043076;28;20462;-69
2021/03/20 01:27:58;;;;;;;2.53;1.50;;;2.40;99.90;;;;;;5046734;28;20895;-69
2021/03/20 01:30:29;;;;;;;3.20;1.20;;;2.50;99.90;;;;;;5027836;28;20543;-67
2021/03/20 01:32:56;;;;;;;1.50;1.20;;;2.30;99.90;;;;;;5050039;28;20456;-67
2021/03/20 01:35:23;;;;;;;1.10;1.00;;;2.10;99.90;;;;;;5027544;28;20846;-67
2021/03/20 01:37:50;;;;;;;2.30;1.20;;;2.20;99.90;;;;;;5044560;28;20894;-68
2021/03/20 01:40:19;;;;;;;2.30;1.30;;;2.30;99.90;;;;;;5046512;28;20488;-68
2021/03/20 01:42:46;;;;;;;1.73;1.47;;;2.20;99.90;;;;;;5045550;28;21152;-68
2021/03/20 01:45:18;;;;;;;1.10;0.90;;;2.00;99.90;;;;;;5050679;28;20453;-68
2021/03/20 01:47:54;;;;;;;1.87;1.40;;;1.90;99.90;;;;;;5043771;28;20795;-68
2021/03/20 01:50:27;;;;;;;1.20;1.10;;;1.70;99.90;;;;;;5045455;28;20459;-68
2021/03/20 01:52:56;;;;;;;2.50;1.83;;;1.70;99.90;;;;;;5042870;28;20964;-68
2021/03/20 01:55:25;;;;;;;2.60;1.07;;;1.80;99.90;;;;;;5040885;28;20509;-68
2021/03/20 01:57:56;;;;;;;1.27;1.17;;;1.90;99.90;;;;;;5048895;28;20462;-68
2021/03/20 02:00:27;;;;;;;1.03;0.83;;;1.80;99.90;;;;;;5049109;28;20492;-68
2021/03/20 02:02:55;;;;;;;1.63;1.53;;;1.70;99.90;;;;;;5041789;28;20491;-68
2021/03/20 02:05:25;;;;;;;1.53;1.43;;;1.60;99.90;;;;;;5042478;28;21222;-68
2021/03/20 02:07:53;;;;;;;2.40;2.03;;;1.50;99.90;;;;;;5045668;28;20469;-68
2021/03/20 02:10:21;;;;;;;1.50;1.40;;;1.60;99.90;;;;;;5049160;28;20557;-68
2021/03/20 02:12:54;;;;;;;1.70;1.33;;;1.80;99.90;;;;;;5047109;28;20476;-68
2021/03/20 02:15:26;;;;;;;1.20;1.00;;;1.80;99.90;;;;;;5047810;28;20468;-68
2021/03/20 02:18:03;;;;;;;2.03;1.20;;;1.80;99.90;;;;;;5045792;28;20895;-68
2021/03/20 02:21:07;;;;;;;1.33;1.20;;;1.80;99.90;;;;;;5045242;28;20473;-68
2021/03/20 02:23:58;;;;;;;1.53;1.43;;;2.00;99.90;;;;;;5039339;28;20483;-68
2021/03/20 02:27:06;;;;;;;1.67;1.50;;;2.10;99.90;;;;;;5044446;28;20467;-68
2021/03/20 02:29:59;;;;;;;2.63;1.20;;;2.00;99.90;;;;;;5047381;28;20443;-68
2021/03/20 02:32:49;;;;;;;2.53;2.00;;;2.20;99.90;;;;;;5031290;28;20516;-68
2021/03/20 02:35:28;;;;;;;1.50;1.40;;;2.20;99.90;;;;;;5048996;28;20464;-68
2021/03/20 02:38:02;;;;;;;3.80;1.33;;;2.00;99.90;;;;;;5041676;28;20434;-68
2021/03/20 02:40:33;;;;;;;2.93;1.30;;;1.90;99.90;;;;;;5041687;28;20449;-67
2021/03/20 02:43:04;;;;;;;1.00;0.83;;;1.70;99.90;;;;;;5037740;28;20509;-68
2021/03/20 02:45:36;;;;;;;1.53;1.43;;;1.80;99.90;;;;;;5045290;28;20498;-67
2021/03/20 02:48:13;;;;;;;1.23;1.03;;;1.80;99.90;;;;;;5043636;28;20437;-67
2021/03/20 02:50:44;;;;;;;1.00;0.90;;;1.70;99.90;;;;;;5042818;28;20445;-68
2021/03/20 02:53:17;;;;;;;1.87;1.47;;;1.60;99.90;;;;;;5044134;28;20926;-67
2021/03/20 02:55:48;;;;;;;2.00;1.17;;;1.70;99.90;;;;;;5046963;28;20559;-67
2021/03/20 02:58:18;;;;;;;1.50;1.10;;;1.70;99.90;;;;;;5045236;28;20456;-68
2021/03/20 03:00:49;;;;;;;1.27;1.13;;;1.60;99.90;;;;;;5045703;28;20481;-67
2021/03/20 03:03:18;;;;;;;1.83;1.20;;;1.50;99.90;;;;;;5042107;28;20472;-67
2021/03/20 03:05:47;;;;;;;1.00;0.80;;;1.40;99.90;;;;;;5039874;28;20994;-67
2021/03/20 03:08:20;;;;;;;1.43;1.33;;;1.40;99.90;;;;;;5041869;28;20522;-68
2021/03/20 03:10:50;;;;;;;9.90;1.50;;;1.50;99.90;;;;;;5047868;28;20517;-67
2021/03/20 03:13:22;;;;;;;3.73;1.57;;;1.50;99.90;;;;;;5043159;28;20990;-68
2021/03/20 03:15:52;;;;;;;2.27;1.83;;;1.50;99.90;;;;;;5043517;28;20474;-68
2021/03/20 03:18:23;;;;;;;3.00;1.20;;;1.60;99.90;;;;;;5036958;28;20451;-68
2021/03/20 03:20:53;;;;;;;2.50;1.10;;;1.50;99.90;;;;;;5039996;28;20502;-67
2021/03/20 03:23:23;;;;;;;2.13;1.27;;;1.50;99.90;;;;;;5042389;28;20454;-68
2021/03/20 03:25:55;;;;;;;1.83;1.13;;;1.60;99.90;;;;;;5037699;28;20458;-68
2021/03/20 03:28:27;;;;;;;1.17;0.90;;;1.70;99.90;;;;;;5042389;28;20486;-68
2021/03/20 03:30:55;;;;;;;3.20;1.83;;;1.60;99.90;;;;;;5049783;28;20472;-68
2021/03/20 03:33:27;;;;;;;1.37;1.27;;;1.50;99.90;;;;;;5041832;28;20487;-68
2021/03/20 03:35:58;;;;;;;1.20;1.10;;;1.20;99.90;;;;;;5039076;28;20465;-68
2021/03/20 03:38:36;;;;;;;2.70;1.73;;;1.00;99.90;;;;;;5045199;28;20501;-68
2021/03/20 03:41:08;;;;;;;4.53;1.67;;;0.90;99.90;;;;;;5036531;28;20559;-68
2021/03/20 03:43:35;;;;;;;3.27;1.47;;;1.10;99.90;;;;;;5043350;28;20533;-68
2021/03/20 03:46:02;;;;;;;1.23;1.13;;;1.00;99.90;;;;;;5047020;28;20470;-68
2021/03/20 03:48:30;;;;;;;1.13;1.03;;;1.10;99.90;;;;;;5045389;28;20438;-68
2021/03/20 03:51:09;;;;;;;2.73;1.60;;;1.00;99.90;;;;;;5048715;28;20429;-68
2021/03/20 03:53:36;;;;;;;1.73;1.63;;;1.10;99.90;;;;;;5043913;28;20483;-68
2021/03/20 03:56:17;;;;;;;1.30;1.20;;;1.20;99.90;;;;;;5034203;28;21042;-68
2021/03/20 03:58:58;;;;;;;1.40;1.13;;;1.00;99.90;;;;;;5053017;28;20470;-68
2021/03/20 04:01:38;;;;;;;1.70;1.23;;;0.80;99.90;;;;;;5047678;28;20467;-68
2021/03/20 04:04:19;;;;;;;2.17;1.30;;;0.70;99.90;;;;;;5049888;28;20547;-68
2021/03/20 04:07:08;;;;;;;2.97;1.83;;;0.80;99.90;;;;;;5042188;28;20799;-68
2021/03/20 04:09:48;;;;;;;2.00;1.40;;;0.90;99.90;;;;;;5041930;28;20421;-68
2021/03/20 04:12:21;;;;;;;1.37;1.13;;;0.80;99.90;;;;;;5041376;28;20609;-68
2021/03/20 04:14:54;;;;;;;2.53;1.63;;;0.90;99.90;;;;;;5048710;28;20478;-68
2021/03/20 04:17:25;;;;;;;1.23;1.00;;;1.10;99.90;;;;;;5043865;28;20869;-68
2021/03/20 04:20:03;;;;;;;6.10;1.10;;;1.10;99.90;;;;;;5041316;28;20544;-68
2021/03/20 04:22:38;;;;;;;1.00;0.90;;;1.10;99.90;;;;;;5042942;28;20632;-68
2021/03/20 04:25:13;;;;;;;3.43;3.13;;;1.30;99.90;;;;;;5045297;28;20459;-68
2021/03/20 04:27:47;;;;;;;2.07;1.97;;;1.20;99.90;;;;;;5046462;28;20931;-68
2021/03/20 04:30:18;;;;;;;3.63;2.03;;;0.90;99.90;;;;;;5045143;28;20424;-68
2021/03/20 04:32:50;;;;;;;2.90;1.60;;;0.80;99.90;;;;;;5048718;28;20458;-68
2021/03/20 04:35:23;;;;;;;1.10;1.00;;;0.70;99.90;;;;;;5043129;28;20438;-69
2021/03/20 04:37:52;;;;;;;1.57;1.47;;;0.80;99.90;;;;;;5045336;28;20451;-68
2021/03/20 04:40:28;;;;;;;1.40;1.30;;;0.80;99.90;;;;;;5040192;28;20454;-69
2021/03/20 04:42:56;;;;;;;1.30;1.10;;;0.60;99.90;;;;;;5051378;28;20441;-68
2021/03/20 04:45:31;;;;;;;1.30;1.00;;;0.60;99.90;;;;;;5047072;28;20583;-69
2021/03/20 04:48:02;;;;;;;3.10;1.63;;;0.70;99.90;;;;;;5040064;28;20463;-68
2021/03/20 04:50:32;;;;;;;1.97;1.57;;;0.90;99.90;;;;;;5045730;28;20448;-69
2021/03/20 04:53:00;;;;;;;1.40;1.20;;;1.10;99.90;;;;;;5046612;28;21029;-69
2021/03/20 04:55:29;;;;;;;1.13;1.03;;;1.00;99.90;;;;;;5044196;28;20967;-69
2021/03/20 04:58:04;;;;;;;1.93;1.50;;;1.00;99.90;;;;;;5041577;28;20465;-68
2021/03/20 05:00:36;;;;;;;1.67;1.53;;;1.00;99.90;;;;;;5046016;28;21045;-68
2021/03/20 05:03:09;;;;;;;3.17;2.87;;;0.90;99.90;;;;;;5039590;28;21178;-69
2021/03/20 05:05:39;;;;;;;1.63;1.53;;;0.90;99.90;;;;;;5046341;28;20505;-69
2021/03/20 05:08:09;;;;;;;2.40;1.07;;;0.90;99.90;;;;;;5037973;28;20540;-69
2021/03/20 05:10:41;;;;;;;0.90;0.80;;;0.90;99.90;;;;;;5045219;28;20493;-68
2021/03/20 05:13:25;;;;;;;3.30;1.17;;;0.80;99.90;;;;;;5043497;28;20514;-68
2021/03/20 05:15:57;;;;;;;1.00;0.90;;;0.90;99.90;;;;;;5038045;28;20881;-68
2021/03/20 05:18:23;;;;;;;3.30;1.80;;;0.90;99.90;;;;;;5041148;28;20490;-68
2021/03/20 05:20:51;;;;;;;1.00;0.90;;;1.00;99.90;;;;;;5026753;28;20519;-69
2021/03/20 05:23:18;;;;;;;3.03;1.50;;;1.00;99.90;;;;;;5035126;28;20539;-68
2021/03/20 05:25:44;;;;;;;2.70;1.37;;;1.00;99.90;;;;;;5038388;28;20554;-69
2021/03/20 05:28:11;;;;;;;2.90;1.57;;;0.90;99.90;;;;;;5026328;28;20469;-68
2021/03/20 05:30:38;;;;;;;1.97;1.77;;;0.80;99.90;;;;;;5031873;28;20457;-69
2021/03/20 05:33:05;;;;;;;1.37;1.23;;;0.80;99.90;;;;;;5036319;28;20990;-69
2021/03/20 05:35:31;;;;;;;1.40;1.30;;;0.90;99.90;;;;;;5045593;28;20466;-68
2021/03/20 05:37:59;;;;;;;1.53;1.43;;;0.90;99.90;;;;;;5042625;28;20441;-69
2021/03/20 05:40:28;;;;;;;1.00;0.80;;;1.00;99.90;;;;;;5039015;28;20619;-68
2021/03/20 05:43:33;;;;;;;3.33;1.67;;;0.90;99.90;;;;;;5048985;28;20549;-69
2021/03/20 05:46:15;;;;;;;0.90;0.80;;;0.90;99.90;;;;;;5045612;28;20453;-69
2021/03/20 05:48:55;;;;;;;6.10;1.33;;;0.80;99.90;;;;;;5047775;28;20463;-69
2021/03/20 05:51:32;;;;;;;1.97;1.47;;;0.80;99.90;;;;;;5047175;28;20440;-69
2021/03/20 05:54:20;;;;;;;2.90;1.97;;;0.80;99.90;;;;;;5037355;28;20480;-69
2021/03/20 05:56:59;;;;;;;2.10;1.90;;;0.90;99.90;;;;;;5040058;28;20437;-69
2021/03/20 05:59:35;;;;;;;1.57;1.47;;;1.00;99.90;;;;;;5043570;28;20917;-69
2021/03/20 06:02:36;;;;;;;3.77;2.50;;;1.00;99.90;;;;;;5048760;28;20524;-69
2021/03/20 06:05:13;;;;;;;2.83;1.70;;;1.10;99.90;;;;;;5040363;28;20490;-68
2021/03/20 06:07:53;;;;;;;1.63;1.43;;;1.10;99.90;;;;;;5038037;28;20458;-68
2021/03/20 06:10:42;;;;;;;5.43;2.63;;;0.90;99.90;;;;;;5048273;28;22058;-68
2021/03/20 06:13:33;;;;;;;1.20;1.07;;;0.80;99.90;;;;;;5046511;28;20448;-68
2021/03/20 06:16:20;;;;;;;1.20;1.10;;;0.90;99.90;;;;;;5052306;28;20853;-68
2021/03/20 06:19:04;;;;;;;2.07;1.77;;;0.90;99.90;;;;;;5044280;28;22173;-68
2021/03/20 06:21:44;;;;;;;2.13;1.43;;;1.10;99.90;;;;;;5045523;28;20471;-68
2021/03/20 06:24:58;;;;;;;1.50;1.20;;;1.30;99.90;;;;;;5045284;28;20519;-68
2021/03/20 06:27:39;;;;;;;1.50;1.30;;;1.50;99.90;;;;;;4999165;28;20437;-68
2021/03/20 06:30:23;;;;;;;1.43;1.30;;;1.50;99.90;;;;;;5047297;28;20838;-68
2021/03/20 06:32:53;;;;;;;1.00;0.80;;;1.20;99.90;;;;;;5043129;28;20454;-68
2021/03/20 06:35:37;;;;;;;3.43;1.43;;;1.40;99.90;;;;;;5035093;28;20502;-68
2021/03/20 06:38:07;;;;;;;3.10;2.20;;;1.50;99.90;;;;;;5038806;28;20496;-68
2021/03/20 06:40:55;;;;;;;0.90;0.70;;;1.70;99.90;;;;;;5041890;28;20438;-68
2021/03/20 06:43:32;;;;;;;2.17;1.20;;;1.50;99.90;;;;;;5052618;28;20453;-68
2021/03/20 06:46:00;;;;;;;3.57;1.80;;;1.60;99.90;;;;;;5047969;28;20435;-68
2021/03/20 06:48:31;;;;;;;1.80;1.67;;;1.80;99.90;;;;;;5046478;28;20438;-68
2021/03/20 06:51:00;;;;;;;3.67;2.17;;;1.90;99.90;;;;;;5046604;28;20430;-68
2021/03/20 06:53:40;;;;;;;2.70;1.20;;;1.80;99.90;;;;;;5050088;28;21015;-68
2021/03/20 06:56:10;;;;;;;2.53;1.60;;;2.10;99.90;;;;;;5052225;28;20437;-68
2021/03/20 06:58:39;;;;;;;6.17;1.97;;;2.30;99.90;;;;;;5048753;28;20429;-68
2021/03/20 07:01:27;;;;;;;2.77;1.33;;;2.30;99.90;;;;;;5052435;28;20474;-68
2021/03/20 07:04:27;;;;;;;1.30;1.20;;;2.40;99.90;;;;;;5045639;28;20454;-68
2021/03/20 07:07:14;;;;;;;1.90;1.30;;;2.40;99.90;;;;;;5049542;28;20493;-68
2021/03/20 07:09:43;;;;;;;1.97;1.17;;;2.40;99.90;;;;;;5038569;28;20930;-68
2021/03/20 07:12:11;;;;;;;2.53;2.07;;;2.40;99.90;;;;;;5047543;28;20574;-68
2021/03/20 07:14:42;;;;;;;1.70;1.60;;;2.60;99.90;;;;;;5045306;28;20450;-68
2021/03/20 07:17:24;;;;;;;1.40;1.30;;;2.50;99.90;;;;;;5044154;28;20445;-70
2021/03/20 07:19:59;;;;;;;4.80;1.57;;;3.40;99.90;;;;;;5050980;28;20796;-68
2021/03/20 07:22:30;;;;;;;2.30;1.73;;;3.90;99.90;;;;;;5055968;28;20451;-68
2021/03/20 07:24:57;;;;;;;3.70;3.40;;;3.60;99.90;;;;;;5055299;28;20885;-68
2021/03/20 07:27:31;;;;;;;9.07;2.57;;;3.00;99.90;;;;;;5046682;28;20455;-68
2021/03/20 07:30:01;;;;;;;2.13;1.53;;;3.10;99.90;;;;;;5046145;28;20508;-68
2021/03/20 07:32:38;;;;;;;1.97;1.60;;;3.00;99.90;;;;;;5049225;28;20421;-69
2021/03/20 07:35:28;;;;;;;1.70;1.60;;;3.00;99.90;;;;;;5054567;28;20550;-68
2021/03/20 07:37:55;;;;;;;2.67;2.47;;;2.80;99.90;;;;;;5053647;28;20454;-69
2021/03/20 07:40:33;;;;;;;2.57;2.37;;;2.60;99.90;;;;;;5046367;28;20471;-68
2021/03/20 07:43:18;;;;;;;1.60;1.40;;;2.70;99.90;;;;;;5047482;28;21813;-69
2021/03/20 07:45:49;;;;;;;1.50;1.40;;;3.20;99.90;;;;;;5051201;28;20462;-68
2021/03/20 07:48:21;;;;;;;2.33;1.87;;;3.60;99.90;;;;;;5037686;28;20768;-68
2021/03/20 07:50:59;;;;;;;3.87;3.43;;;3.90;99.90;;;;;;5043554;28;20440;-68
2021/03/20 07:53:27;;;;;;;3.03;1.57;;;3.90;99.90;;;;;;5042645;28;20525;-67
2021/03/20 07:56:00;;;;;;;2.80;1.80;;;3.70;99.90;;;;;;5043540;28;20492;-68
2021/03/20 07:58:33;;;;;;;2.67;1.77;;;3.90;99.90;;;;;;5053200;28;20483;-68
2021/03/20 08:01:06;;;;;;;1.60;1.43;;;3.90;99.90;;;;;;5047544;28;20847;-69
2021/03/20 08:03:46;;;;;;;4.20;3.80;;;4.10;99.90;;;;;;5045041;28;20947;-68
2021/03/20 08:06:15;;;;;;;4.73;3.23;;;3.80;99.90;;;;;;5039715;28;20474;-68
2021/03/20 08:08:43;;;;;;;6.90;6.03;;;3.50;99.90;;;;;;5039976;28;20467;-68
2021/03/20 08:11:30;;;;;;;1.73;1.30;;;3.50;99.90;;;;;;5040006;28;20426;-68
2021/03/20 08:14:04;;;;;;;2.60;1.63;;;3.40;99.90;;;;;;5034253;28;22312;-68
2021/03/20 08:16:32;;;;;;;10.73;4.03;;;3.10;99.90;;;;;;5040233;28;21086;-68
2021/03/20 08:18:59;;;;;;;2.80;2.60;;;4.20;99.90;;;;;;5039358;28;20557;-68
2021/03/20 08:22:07;;;;;;;15.40;3.73;;;5.30;99.90;;;;;;5039955;28;20489;-68
2021/03/20 08:24:53;;;;;;;4.87;3.20;;;6.50;99.90;;;;;;5028186;28;20458;-68
2021/03/20 08:27:28;;;;;;;2.10;1.93;;;7.50;99.90;;;;;;5033673;28;20441;-68
2021/03/20 08:30:21;;;;;;;2.80;2.00;;;8.00;99.90;;;;;;5036184;28;20451;-69
2021/03/20 08:33:22;;;;;;;3.00;2.17;;;8.60;99.90;;;;;;5051436;28;20510;-68
2021/03/20 08:36:02;;;;;;;2.67;2.47;;;9.60;99.90;;;;;;5049372;28;20491;-68
2021/03/20 08:38:55;;;;;;;3.47;2.60;;;10.30;98.50;;;;;;5041850;28;20452;-69
2021/03/20 08:41:33;;;;;;;3.40;2.43;;;10.00;98.00;;;;;;5039586;28;20517;-68
2021/03/20 08:44:26;;;;;;;2.80;2.40;;;10.90;96.00;;;;;;5042836;28;20478;-69
2021/03/20 08:47:20;;;;;;;2.27;1.50;;;11.40;93.80;;;;;;5052089;28;20920;-69
2021/03/20 08:50:02;;;;;;;3.00;1.70;;;10.80;92.10;;;;;;5048996;28;20512;-69
2021/03/20 08:52:39;;;;;;;2.00;1.80;;;10.50;93.50;;;;;;5047984;28;21007;-68
2021/03/20 08:55:31;;;;;;;2.33;2.13;;;11.00;92.60;;;;;;5039358;28;21067;-68
2021/03/20 08:58:08;;;;;;;1.73;1.37;;;11.40;90.30;;;;;;5043456;28;20547;-69
2021/03/20 09:00:43;;;;;;;3.40;2.03;;;10.70;89.20;;;;;;5042095;28;20471;-69
2021/03/20 09:03:13;;;;;;;2.40;1.93;;;10.20;90.90;;;;;;5053620;28;20490;-69
2021/03/20 09:05:46;;;;;;;5.23;2.27;;;9.70;92.10;;;;;;5048500;28;21215;-69
2021/03/20 09:08:19;;;;;;;3.83;2.17;;;10.20;90.50;;;;;;5042178;28;20978;-68
2021/03/20 09:10:57;;;;;;;2.73;1.80;;;9.60;90.90;;;;;;5044159;28;20467;-68
2021/03/20 09:13:30;;;;;;;2.73;2.00;;;9.70;91.00;;;;;;5041269;28;20536;-69
2021/03/20 09:16:00;;;;;;;2.10;1.33;;;9.70;90.90;;;;;;5046646;28;20486;-69
2021/03/20 09:18:29;;;;;;;2.57;1.43;;;10.40;91.20;;;;;;5041459;28;20476;-68
2021/03/20 09:20:58;;;;;;;2.03;1.63;;;11.70;80.30;;;;;;5044347;28;20577;-68
2021/03/20 09:23:30;;;;;;;2.30;1.60;;;11.40;78.60;;;;;;5033126;28;20478;-69
2021/03/20 09:25:59;;;;;;;5.60;3.13;;;12.30;76.80;;;;;;5038051;28;20454;-69
2021/03/20 09:28:29;;;;;;;3.70;1.83;;;12.30;75.00;;;;;;5044342;28;21006;-68
2021/03/20 09:31:21;;;;;;;3.70;2.73;;;12.70;77.80;;;;;;5063822;28;20802;-69
2021/03/20 09:33:48;;;;;;;6.50;2.20;;;13.90;71.50;;;;;;5052161;28;20835;-69
2021/03/20 09:36:41;;;;;;;8.60;2.20;;;14.20;67.90;;;;;;5039398;28;20497;-69
2021/03/20 09:39:31;;;;;;;2.23;1.57;;;13.60;65.70;;;;;;5053697;28;20495;-69
2021/03/20 09:41:58;;;;;;;2.63;1.60;;;13.50;60.70;;;;;;5048423;28;20872;-69
2021/03/20 09:44:27;;;;;;;3.37;1.90;;;12.60;61.70;;;;;;5050133;28;20482;-69
2021/03/20 09:46:56;;;;;;;5.73;1.50;;;12.60;61.80;;;;;;5047073;28;20587;-69
2021/03/20 09:49:52;;;;;;;1.60;1.50;;;13.60;58.60;;;;;;5052432;28;20503;-67
2021/03/20 09:52:41;;;;;;;1.67;1.40;;;13.40;55.70;;;;;;5047272;28;20975;-67
2021/03/20 09:55:33;;;;;;;2.57;1.87;;;13.00;56.60;;;;;;5043348;28;20451;-68
2021/03/20 09:58:01;;;;;;;1.30;1.17;;;13.10;57.20;;;;;;5047654;28;20546;-68
2021/03/20 10:00:57;;;;;;;2.90;1.70;;;12.40;56.00;;;;;;5044818;28;20507;-68
2021/03/20 10:03:44;;;;;;;4.30;2.50;;;12.30;59.20;;;;;;5050170;28;20537;-69
2021/03/20 10:06:30;;;;;;;2.93;1.77;;;12.70;55.90;;;;;;5051926;28;20586;-68
2021/03/20 10:09:22;;;;;;;2.40;1.60;;;13.00;55.80;;;;;;5043485;28;20509;-68
2021/03/20 10:12:13;;;;;;;4.50;2.27;;;12.80;54.40;;;;;;5043858;28;20448;-68
2021/03/20 10:15:12;;;;;;;2.47;1.80;;;11.60;52.90;;;;;;5049213;28;20475;-68
2021/03/20 10:18:21;;;;;;;1.83;1.37;;;12.00;53.20;;;;;;5051129;28;20469;-68
2021/03/20 10:21:26;;;;;;;1.83;0.97;;;12.40;49.00;;;;;;4963823;28;20923;-69
2021/03/20 10:24:01;;;;;;;4.30;1.73;;;12.10;42.00;;;;;;4955789;28;20478;-68
2021/03/20 10:26:37;;;;;;;2.60;1.87;;;11.70;46.90;;;;;;5034965;28;21022;-68
2021/03/20 10:29:08;;;;;;;6.20;1.70;;;11.80;49.90;;;;;;5058228;28;20877;-68
2021/03/20 10:31:41;;;;;;;1.37;1.27;;;12.20;48.50;;;;;;5048993;28;20869;-68
2021/03/20 10:34:11;;;;;;;2.13;1.43;;;12.10;45.60;;;;;;5047251;28;20987;-68
2021/03/20 10:36:40;;;;;;;1.50;1.07;;;12.60;45.50;;;;;;5045482;28;20466;-69
2021/03/20 10:39:26;;;;;;;2.40;1.40;;;12.90;42.10;;;;;;5046643;28;20452;-69
2021/03/20 10:41:57;;;;;;;1.20;1.10;;;12.40;40.80;;;;;;5050665;28;20514;-68
2021/03/20 10:44:27;;;;;;;1.93;1.20;;;12.50;42.40;;;;;;5058843;28;20558;-69
2021/03/20 10:47:07;;;;;;;1.53;1.20;;;12.40;43.80;;;;;;5045389;28;20589;-68
2021/03/20 10:49:38;;;;;;;4.37;2.63;;;12.90;44.50;;;;;;5050214;28;20479;-69
2021/03/20 10:52:11;;;;;;;3.87;3.20;;;13.20;46.50;;;;;;5052061;28;20462;-68
2021/03/20 10:54:43;;;;;;;1.93;1.50;;;12.80;47.60;;;;;;5060936;28;20874;-68
2021/03/20 10:57:14;;;;;;;2.50;2.00;;;12.40;47.10;;;;;;5055005;28;20463;-68
2021/03/20 10:59:44;;;;;;;2.00;1.40;;;12.50;47.80;;;;;;5053753;28;20495;-68
2021/03/20 11:02:27;;;;;;;1.43;1.30;;;13.30;48.80;;;;;;5048441;28;20483;-68
2021/03/20 11:05:09;;;;;;;3.40;1.93;;;14.10;47.20;;;;;;5054674;28;20977;-69
2021/03/20 11:07:45;;;;;;;3.33;1.73;;;15.00;46.40;;;;;;5049013;28;20462;-69
2021/03/20 11:10:13;;;;;;;2.77;1.53;;;14.80;45.60;;;;;;5053896;28;20487;-69
2021/03/20 11:12:40;;;;;;;3.83;1.90;;;13.90;47.50;;;;;;5050900;28;20474;-68
2021/03/20 11:15:08;;;;;;;2.03;1.83;;;13.40;46.80;;;;;;5047430;28;20459;-68
2021/03/20 11:17:35;;;;;;;5.80;2.13;;;13.80;48.50;;;;;;5043309;28;20600;-69
2021/03/20 11:20:08;;;;;;;2.80;2.60;;;13.80;47.80;;;;;;5045768;28;20560;-68
2021/03/20 11:22:37;;;;;;;2.93;1.60;;;14.40;48.00;;;;;;5048579;28;20508;-69
2021/03/20 11:25:10;;;;;;;3.90;2.10;;;14.80;46.20;;;;;;5038453;28;20514;-68
2021/03/20 11:27:38;;;;;;;4.90;1.90;;;15.90;43.60;;;;;;5046124;28;20467;-68
2021/03/20 11:30:14;;;;;;;2.17;1.67;;;16.60;41.80;;;;;;5052420;28;20455;-68
2021/03/20 11:32:43;;;;;;;2.17;1.90;;;15.40;40.80;;;;;;5057012;28;20458;-68
2021/03/20 11:35:16;;;;;;;2.67;1.80;;;15.80;44.50;;;;;;5048794;28;20455;-68
2021/03/20 11:37:45;;;;;;;2.73;1.73;;;16.10;41.20;;;;;;5041091;28;20897;-67
2021/03/20 11:40:26;;;;;;;4.53;3.00;;;15.80;41.80;;;;;;5053201;28;20460;-68
2021/03/20 11:42:55;;;;;;;2.80;1.87;;;17.10;42.70;;;;;;5054589;28;20858;-68
2021/03/20 11:45:28;;;;;;;2.13;1.83;;;18.20;42.40;;;;;;5052471;28;20455;-68
2021/03/20 11:47:57;;;;;;;2.37;1.50;;;19.40;38.80;;;;;;5048546;28;20466;-69
2021/03/20 11:50:27;;;;;;;2.13;1.90;;;19.10;38.90;;;;;;5055345;28;20570;-68
2021/03/20 11:52:57;;;;;;;1.53;1.43;;;19.30;37.20;;;;;;5054753;28;20471;-67
2021/03/20 11:55:33;;;;;;;2.50;1.97;;;18.30;36.70;;;;;;5050432;28;20455;-68
2021/03/20 11:58:01;;;;;;;2.10;1.60;;;18.30;38.50;;;;;;5053167;28;20819;-67
2021/03/20 12:00:38;;;;;;;3.37;1.80;;;18.30;36.70;;;;;;5061839;28;20955;-67
2021/03/20 12:03:24;;;;;;;3.30;1.77;;;18.30;33.90;;;;;;5052857;28;20896;-67
2021/03/20 12:05:52;;;;;;;1.50;1.40;;;18.40;32.40;;;;;;5050375;28;20853;-67
2021/03/20 12:08:38;;;;;;;1.97;1.40;;;18.20;29.90;;;;;;5057535;28;20452;-67
2021/03/20 12:11:08;;;;;;;2.63;1.20;;;18.90;29.40;;;;;;5047104;28;20955;-67
2021/03/20 12:13:52;;;;;;;2.07;1.27;;;18.90;29.20;;;;;;5041930;28;20499;-68
2021/03/20 12:16:38;;;;;;;2.73;1.60;;;18.70;29.50;;;;;;5044387;28;20529;-68
2021/03/20 12:19:22;;;;;;;3.33;1.57;;;18.50;30.50;;;;;;5046201;28;20483;-68
2021/03/20 12:22:06;;;;;;;2.10;1.63;;;18.10;31.00;;;;;;5061496;28;20563;-68
2021/03/20 12:24:39;;;;;;;5.00;1.47;;;17.20;30.00;;;;;;5051865;28;20483;-67
2021/03/20 12:27:39;;;;;;;2.07;1.57;;;16.60;30.30;;;;;;5052417;28;20505;-68
2021/03/20 12:30:18;;;;;;;3.33;1.67;;;16.90;32.30;;;;;;4999017;28;20461;-67
2021/03/20 12:32:47;;;;;;;2.73;1.00;;;16.30;31.90;;;;;;4996568;28;20970;-67
2021/03/20 12:35:32;;;;;;;5.00;1.93;;;15.60;33.10;;;;;;5020793;28;20460;-67
2021/03/20 12:38:15;;;;;;;2.63;1.97;;;15.10;33.20;;;;;;5043911;28;20458;-67
2021/03/20 12:40:48;;;;;;;2.33;1.70;;;15.30;33.20;;;;;;5044817;28;20475;-68
2021/03/20 12:43:28;;;;;;;2.07;1.60;;;14.80;35.30;;;;;;5049443;28;20804;-68
2021/03/20 12:45:56;;;;;;;3.47;1.83;;;15.50;37.10;;;;;;5055079;28;21164;-68
2021/03/20 12:48:24;;;;;;;5.07;2.13;;;15.80;35.80;;;;;;5052750;28;20450;-68
2021/03/20 12:50:57;;;;;;;5.37;3.30;;;16.00;35.30;;;;;;5048945;28;20455;-70
2021/03/20 12:53:23;;;;;;;4.13;1.97;;;16.20;34.60;;;;;;5051698;28;20555;-68
2021/03/20 12:55:50;;;;;;;2.43;1.73;;;15.80;35.70;;;;;;5033183;28;20548;-69
2021/03/20 12:58:17;;;;;;;5.73;1.80;;;15.90;36.00;;;;;;5041853;28;20497;-69
2021/03/20 13:00:43;;;;;;;3.20;1.60;;;15.60;37.00;;;;;;5051195;28;20870;-69
2021/03/20 13:03:10;;;;;;;2.60;1.53;;;16.00;36.20;;;;;;5051725;28;20483;-68
2021/03/20 13:05:40;;;;;;;3.23;1.70;;;16.30;36.20;;;;;;5036164;28;20466;-69
2021/03/20 13:08:08;;;;;;;1.90;1.30;;;16.70;35.10;;;;;;5056073;28;20459;-69
2021/03/20 13:10:35;;;;;;;4.67;2.63;;;17.00;34.00;;;;;;5053845;28;20476;-68
2021/03/20 13:13:02;;;;;;;2.90;1.97;;;16.20;35.50;;;;;;5032549;28;20481;-69
2021/03/20 13:15:28;;;;;;;2.13;1.83;;;15.40;35.50;;;;;;5053862;28;20992;-68
2021/03/20 13:17:55;;;;;;;1.93;1.53;;;16.00;35.90;;;;;;5051943;28;20506;-68
2021/03/20 13:20:23;;;;;;;5.43;4.17;;;15.80;34.70;;;;;;5032910;28;20483;-67
2021/03/20 13:22:52;;;;;;;4.80;2.43;;;15.50;35.50;;;;;;5046818;28;20533;-67
2021/03/20 13:25:22;;;;;;;2.47;2.03;;;14.30;36.00;;;;;;5049461;28;21101;-67
2021/03/20 13:27:49;;;;;;;1.60;1.40;;;13.20;37.90;;;;;;5047495;28;20459;-68
2021/03/20 13:30:21;;;;;;;2.33;1.53;;;13.30;37.20;;;;;;5047801;28;20451;-67
2021/03/20 13:32:49;;;;;;;1.73;1.30;;;13.30;38.40;;;;;;5051785;28;20800;-67